createdAt,value
2019-01-18T00:00:32.896Z,930.3
2019-01-18T00:01:32.777Z,930.3
2019-01-18T00:02:32.652Z,930.3
2019-01-18T00:03:32.518Z,930.3
2019-01-18T00:04:32.394Z,930.3
2019-01-18T00:05:32.274Z,930.3
2019-01-18T00:06:32.155Z,930.2
2019-01-18T00:07:32.029Z,930.3
2019-01-18T00:08:31.916Z,930.4
2019-01-18T00:09:31.803Z,930.3
2019-01-18T00:10:32.102Z,930.4
2019-01-18T00:11:32.006Z,930.3
2019-01-18T00:12:31.891Z,929.2
2019-01-18T00:13:31.771Z,930.4
2019-01-18T00:14:31.652Z,930.4
2019-01-18T00:15:31.536Z,930.4
2019-01-18T00:16:31.477Z,930.4
2019-01-18T00:17:31.358Z,930.3
2019-01-18T00:18:31.257Z,930.4
2019-01-18T00:19:31.147Z,930.5
2019-01-18T00:20:31.445Z,930.4
2019-01-18T00:21:31.338Z,930.5
2019-01-18T00:22:31.239Z,930.4
2019-01-18T00:23:31.128Z,930.4
2019-01-18T00:24:30.995Z,930.5
2019-01-18T00:25:30.898Z,930.3
2019-01-18T00:26:30.811Z,930.5
2019-01-18T00:27:30.698Z,930.4
2019-01-18T00:28:30.588Z,930.4
2019-01-18T00:29:30.753Z,930.4
2019-01-18T00:30:31.106Z,930.5
2019-01-18T00:31:31.003Z,930.5
2019-01-18T00:32:30.897Z,930.3
2019-01-18T00:33:30.770Z,930.4
2019-01-18T00:34:30.655Z,930.5
2019-01-18T00:35:30.547Z,930.5
2019-01-18T00:36:30.461Z,930.4
2019-01-18T00:37:30.355Z,930.4
2019-01-18T00:38:30.237Z,930.4
2019-01-18T00:39:30.137Z,930.5
2019-01-18T00:40:30.457Z,930.5
2019-01-18T00:41:30.369Z,930.5
2019-01-18T00:42:30.271Z,930.5
2019-01-18T00:43:30.139Z,930.4
2019-01-18T00:44:30.015Z,930.4
2019-01-18T00:45:29.889Z,930.4
2019-01-18T00:46:29.809Z,930.5
2019-01-18T00:47:29.675Z,930.5
2019-01-18T00:48:29.563Z,930.3
2019-01-18T00:49:29.458Z,930.3
2019-01-18T00:50:29.795Z,928.8
2019-01-18T00:51:29.699Z,930.3
2019-01-18T00:52:29.589Z,930.3
2019-01-18T00:53:29.464Z,930.3
2019-01-18T00:54:29.339Z,930.4
2019-01-18T00:55:29.228Z,930.5
2019-01-18T00:56:29.131Z,930.4
2019-01-18T00:57:29.002Z,930.3
2019-01-18T00:58:28.900Z,930.3
2019-01-18T00:59:28.779Z,930.4
2019-01-18T01:00:29.134Z,930.2
2019-01-18T01:01:29.027Z,930.2
2019-01-18T01:02:28.911Z,930.4
2019-01-18T01:03:28.779Z,930.4
2019-01-18T01:04:28.667Z,930.4
2019-01-18T01:05:28.565Z,930.2
2019-01-18T01:06:28.466Z,929.5
2019-01-18T01:07:28.359Z,930.3
2019-01-18T01:08:28.232Z,930.5
2019-01-18T01:09:28.108Z,930.4
2019-01-18T01:10:28.402Z,930.5
2019-01-18T01:11:28.320Z,930.4
2019-01-18T01:12:28.216Z,930.4
2019-01-18T01:13:28.112Z,930.3
2019-01-18T01:14:27.995Z,930.2
2019-01-18T01:15:27.857Z,930.5
2019-01-18T01:16:27.721Z,930.5
2019-01-18T01:17:27.694Z,930.3
2019-01-18T01:18:27.587Z,930.5
2019-01-18T01:19:27.476Z,930.5
2019-01-18T01:20:27.786Z,930.5
2019-01-18T01:21:27.664Z,930.5
2019-01-18T01:22:27.555Z,930.5
2019-01-18T01:23:27.459Z,930.3
2019-01-18T01:24:27.339Z,930.3
2019-01-18T01:25:27.222Z,930.4
2019-01-18T01:26:27.115Z,930.4
2019-01-18T01:27:27.001Z,930.4
2019-01-18T01:28:26.909Z,930.4
2019-01-18T01:29:26.814Z,930.3
2019-01-18T01:30:27.117Z,930.4
2019-01-18T01:31:26.995Z,930.4
2019-01-18T01:32:26.885Z,930.2
2019-01-18T01:33:26.763Z,930.5
2019-01-18T01:34:26.653Z,930.4
2019-01-18T01:35:26.528Z,930.4
2019-01-18T01:36:26.403Z,930.3
2019-01-18T01:37:26.379Z,930.5
2019-01-18T01:38:26.278Z,930.4
2019-01-18T01:39:26.204Z,930.4
2019-01-18T01:40:26.512Z,930.4
2019-01-18T01:41:26.395Z,930.4
2019-01-18T01:42:26.287Z,930.4
2019-01-18T01:43:26.189Z,930.4
2019-01-18T01:44:26.095Z,930.5
2019-01-18T01:45:25.979Z,930.5
2019-01-18T01:46:25.869Z,930.5
2019-01-18T01:47:25.827Z,930.4
2019-01-18T01:48:25.717Z,930.5
2019-01-18T01:49:25.639Z,930.5
2019-01-18T01:50:25.948Z,930.5
2019-01-18T01:51:25.821Z,930.5
2019-01-18T01:52:25.762Z,930.5
2019-01-18T01:53:25.654Z,930.5
2019-01-18T01:54:25.407Z,930.5
2019-01-18T01:55:25.161Z,930.5
2019-01-18T01:56:24.888Z,930.4
2019-01-18T01:57:24.599Z,930.4
2019-01-18T01:58:24.329Z,930.4
2019-01-18T01:59:24.249Z,930.4
2019-01-18T02:00:24.554Z,930.4
2019-01-18T02:01:24.451Z,930.4
2019-01-18T02:02:24.345Z,930.4
2019-01-18T02:03:24.217Z,930.3
2019-01-18T02:04:24.129Z,930.3
2019-01-18T02:05:24.097Z,930.5
2019-01-18T02:06:23.979Z,930.5
2019-01-18T02:07:23.857Z,930.5
2019-01-18T02:08:23.743Z,930.3
2019-01-18T02:09:23.631Z,930.5
2019-01-18T02:10:23.953Z,930.5
2019-01-18T02:11:23.841Z,930.5
2019-01-18T02:12:23.753Z,930.6
2019-01-18T02:13:23.653Z,930.7
2019-01-18T02:14:23.539Z,930.6
2019-01-18T02:15:23.437Z,930.7
2019-01-18T02:16:23.345Z,930.7
2019-01-18T02:17:23.220Z,930.9
2019-01-18T02:18:23.105Z,931
2019-01-18T02:19:23.003Z,930.8
2019-01-18T02:20:23.319Z,930.9
2019-01-18T02:21:23.222Z,931.2
2019-01-18T02:22:23.101Z,931.2
2019-01-18T02:23:22.985Z,931.2
2019-01-18T02:24:22.862Z,931.2
2019-01-18T02:25:22.771Z,931.2
2019-01-18T02:26:22.679Z,931.3
2019-01-18T02:27:22.569Z,931.4
2019-01-18T02:28:22.465Z,931.4
2019-01-18T02:29:22.349Z,931.3
2019-01-18T02:30:27.092Z,931.4
2019-01-18T02:31:27.030Z,931.5
2019-01-18T02:32:26.955Z,931.4
2019-01-18T02:33:26.857Z,931.6
2019-01-18T02:34:26.741Z,931.5
2019-01-18T02:35:26.660Z,931.5
2019-01-18T02:36:26.647Z,931.6
2019-01-18T02:37:26.541Z,931.7
2019-01-18T02:38:26.472Z,931.7
2019-01-18T02:39:26.362Z,931.7
2019-01-18T02:40:26.684Z,931.7
2019-01-18T02:41:26.599Z,931.8
2019-01-18T02:42:26.505Z,931.7
2019-01-18T02:43:26.379Z,931.7
2019-01-18T02:44:26.254Z,931.7
2019-01-18T02:45:26.159Z,931.7
2019-01-18T02:46:26.053Z,931.7
2019-01-18T02:47:25.937Z,931.7
2019-01-18T02:48:25.831Z,931.8
2019-01-18T02:49:25.734Z,931.8
2019-01-18T02:50:26.113Z,931.8
2019-01-18T02:51:26.008Z,931.7
2019-01-18T02:52:25.895Z,931.7
2019-01-18T02:53:25.781Z,931.6
2019-01-18T02:54:25.677Z,931.7
2019-01-18T02:55:29.941Z,931.7
2019-01-18T02:56:29.837Z,931.7
2019-01-18T02:57:29.714Z,931.1
2019-01-18T02:58:29.593Z,931.7
2019-01-18T02:59:29.486Z,931.7
2019-01-18T03:00:35.499Z,931.8
2019-01-18T03:01:35.417Z,931.8
2019-01-18T03:02:35.314Z,931.8
2019-01-18T03:03:35.183Z,931.8
2019-01-18T03:04:35.081Z,931.7
2019-01-18T03:05:34.974Z,931.6
2019-01-18T03:06:34.877Z,931.6
2019-01-18T03:07:34.767Z,931.7
2019-01-18T03:08:34.643Z,931.6
2019-01-18T03:09:34.543Z,931.7
2019-01-18T03:10:34.845Z,931.7
2019-01-18T03:11:34.747Z,931.8
2019-01-18T03:12:34.631Z,931.7
2019-01-18T03:13:34.538Z,931.8
2019-01-18T03:14:34.452Z,931.8
2019-01-18T03:15:34.330Z,931.6
2019-01-18T03:16:34.219Z,931.6
2019-01-18T03:17:34.210Z,931.8
2019-01-18T03:18:34.098Z,931.8
2019-01-18T03:19:33.981Z,931.8
2019-01-18T03:20:34.298Z,931.8
2019-01-18T03:21:34.199Z,931.8
2019-01-18T03:22:34.083Z,931.8
2019-01-18T03:23:33.995Z,931.7
2019-01-18T03:24:33.864Z,931.7
2019-01-18T03:25:33.806Z,931.8
2019-01-18T03:26:33.700Z,931.9
2019-01-18T03:27:33.615Z,931.9
2019-01-18T03:28:33.554Z,932
2019-01-18T03:29:33.449Z,931.9
2019-01-18T03:30:33.794Z,931.9
2019-01-18T03:31:33.730Z,930.2
2019-01-18T03:32:33.789Z,932
2019-01-18T03:33:33.695Z,932
2019-01-18T03:34:33.599Z,932
2019-01-18T03:35:33.500Z,932
2019-01-18T03:36:33.411Z,932
2019-01-18T03:37:33.293Z,932
2019-01-18T03:38:33.184Z,932
2019-01-18T03:39:33.090Z,931.9
2019-01-18T03:40:33.411Z,932
2019-01-18T03:41:33.316Z,932
2019-01-18T03:42:33.242Z,932.1
2019-01-18T03:43:33.125Z,932.1
2019-01-18T03:44:33.031Z,932.1
2019-01-18T03:45:32.909Z,932.2
2019-01-18T03:46:32.811Z,931.9
2019-01-18T03:47:32.704Z,932.1
2019-01-18T03:48:32.584Z,932.1
2019-01-18T03:49:32.486Z,932.2
2019-01-18T03:50:32.857Z,932.1
2019-01-18T03:51:32.756Z,932.2
2019-01-18T03:52:32.641Z,932.2
2019-01-18T03:53:32.521Z,932.2
2019-01-18T03:54:32.432Z,932.1
2019-01-18T03:55:32.329Z,932.2
2019-01-18T03:56:32.228Z,932.3
2019-01-18T03:57:32.109Z,932.3
2019-01-18T03:58:32.007Z,932.3
2019-01-18T03:59:31.903Z,932.3
2019-01-18T04:00:32.257Z,932.3
2019-01-18T04:01:32.158Z,932.2
2019-01-18T04:02:32.072Z,932.2
2019-01-18T04:03:31.984Z,932.2
2019-01-18T04:04:31.890Z,932.2
2019-01-18T04:05:31.755Z,932.3
2019-01-18T04:06:31.658Z,932.3
2019-01-18T04:07:31.556Z,932.3
2019-01-18T04:08:31.464Z,932.3
2019-01-18T04:09:31.344Z,932.4
2019-01-18T04:10:31.788Z,932.3
2019-01-18T04:11:31.686Z,932.5
2019-01-18T04:12:31.583Z,932.4
2019-01-18T04:13:31.490Z,932.4
2019-01-18T04:14:31.394Z,932.5
2019-01-18T04:15:31.290Z,932.4
2019-01-18T04:16:31.206Z,932.4
2019-01-18T04:17:31.096Z,932.4
2019-01-18T04:18:31.001Z,932.5
2019-01-18T04:19:30.892Z,932.5
2019-01-18T04:20:31.231Z,932.5
2019-01-18T04:21:31.127Z,932.5
2019-01-18T04:22:31.035Z,932.5
2019-01-18T04:23:30.927Z,932.4
2019-01-18T04:24:30.819Z,932.5
2019-01-18T04:25:30.723Z,932.5
2019-01-18T04:26:30.617Z,930.7
2019-01-18T04:27:30.503Z,932.4
2019-01-18T04:28:30.387Z,932.6
2019-01-18T04:29:30.302Z,932.6
2019-01-18T04:30:34.594Z,932.6
2019-01-18T04:31:34.502Z,932.6
2019-01-18T04:32:34.417Z,932.6
2019-01-18T04:33:34.305Z,932.6
2019-01-18T04:34:34.195Z,932.5
2019-01-18T04:35:34.113Z,932.6
2019-01-18T04:36:33.996Z,932.7
2019-01-18T04:37:33.888Z,932.7
2019-01-18T04:38:33.773Z,932.7
2019-01-18T04:39:33.675Z,932
2019-01-18T04:40:33.984Z,931.2
2019-01-18T04:41:33.878Z,932.7
2019-01-18T04:42:33.813Z,932.8
2019-01-18T04:43:33.687Z,932.6
2019-01-18T04:44:33.583Z,932.7
2019-01-18T04:45:33.475Z,932.9
2019-01-18T04:46:33.379Z,932.9
2019-01-18T04:47:33.274Z,932.9
2019-01-18T04:48:33.151Z,932.9
2019-01-18T04:49:33.031Z,932.9
2019-01-18T04:50:33.392Z,932.9
2019-01-18T04:51:33.294Z,933
2019-01-18T04:52:33.198Z,933
2019-01-18T04:53:33.073Z,933
2019-01-18T04:54:32.941Z,932.9
2019-01-18T04:55:32.862Z,933
2019-01-18T04:56:32.832Z,933.1
2019-01-18T04:57:32.729Z,933.1
2019-01-18T04:58:32.624Z,933.1
2019-01-18T04:59:32.511Z,933.1
2019-01-18T05:00:32.878Z,933
2019-01-18T05:01:32.780Z,933
2019-01-18T05:02:32.739Z,933.2
2019-01-18T05:03:32.632Z,933.2
2019-01-18T05:04:32.925Z,933.2
2019-01-18T05:05:32.811Z,933
2019-01-18T05:06:32.712Z,933.1
2019-01-18T05:07:32.614Z,933.2
2019-01-18T05:08:32.558Z,933.2
2019-01-18T05:09:32.474Z,933.3
2019-01-18T05:10:32.807Z,933.4
2019-01-18T05:11:32.719Z,933.4
2019-01-18T05:12:32.604Z,933.5
2019-01-18T05:13:32.509Z,933.4
2019-01-18T05:14:32.405Z,933.5
2019-01-18T05:15:32.351Z,933.5
2019-01-18T05:16:32.246Z,933.5
2019-01-18T05:17:32.128Z,933.6
2019-01-18T05:18:32.031Z,933.5
2019-01-18T05:19:31.920Z,933.6
2019-01-18T05:20:32.228Z,933.5
2019-01-18T05:21:32.219Z,933.6
2019-01-18T05:22:32.094Z,933.4
2019-01-18T05:23:31.972Z,933.6
2019-01-18T05:24:31.891Z,933.6
2019-01-18T05:25:31.802Z,933.6
2019-01-18T05:26:31.719Z,933.4
2019-01-18T05:27:31.625Z,933.4
2019-01-18T05:28:31.499Z,933.6
2019-01-18T05:29:31.404Z,933.6
2019-01-18T05:30:31.876Z,933.7
2019-01-18T05:31:31.780Z,933.8
2019-01-18T05:32:31.678Z,933.7
2019-01-18T05:33:31.554Z,933.6
2019-01-18T05:34:31.452Z,933.7
2019-01-18T05:35:31.332Z,933.8
2019-01-18T05:36:31.224Z,933.8
2019-01-18T05:37:31.147Z,933.8
2019-01-18T05:38:31.039Z,933.8
2019-01-18T05:39:30.948Z,933.8
2019-01-18T05:40:31.315Z,933.8
2019-01-18T05:41:31.213Z,933.8
2019-01-18T05:42:31.176Z,933.9
2019-01-18T05:43:31.081Z,933.9
2019-01-18T05:44:30.999Z,933.9
2019-01-18T05:45:30.888Z,934
2019-01-18T05:46:30.787Z,934
2019-01-18T05:47:30.678Z,934
2019-01-18T05:48:30.574Z,934
2019-01-18T05:49:30.482Z,934
2019-01-18T05:50:30.799Z,934.1
2019-01-18T05:51:30.680Z,934.1
2019-01-18T05:52:30.603Z,934
2019-01-18T05:53:30.490Z,934.1
2019-01-18T05:54:30.401Z,934
2019-01-18T05:55:30.278Z,934
2019-01-18T05:56:30.183Z,934.1
2019-01-18T05:57:30.071Z,934.1
2019-01-18T05:58:31.525Z,934
2019-01-18T05:59:31.435Z,934.1
2019-01-18T06:00:31.772Z,934.1
2019-01-18T06:01:31.767Z,934.2
2019-01-18T06:02:31.659Z,934.2
2019-01-18T06:03:31.559Z,934.1
2019-01-18T06:04:31.480Z,934.2
2019-01-18T06:05:31.389Z,934.2
2019-01-18T06:06:31.274Z,932.7
2019-01-18T06:07:31.165Z,934.1
2019-01-18T06:08:31.046Z,934.2
2019-01-18T06:09:30.939Z,934.3
2019-01-18T06:10:31.258Z,934.2
2019-01-18T06:11:31.150Z,934.3
2019-01-18T06:12:31.055Z,934.3
2019-01-18T06:13:30.935Z,934.3
2019-01-18T06:14:30.846Z,934.3
2019-01-18T06:15:30.736Z,934.3
2019-01-18T06:16:30.631Z,934.3
2019-01-18T06:17:30.566Z,934.3
2019-01-18T06:18:30.480Z,934.4
2019-01-18T06:19:30.403Z,934.4
2019-01-18T06:20:30.784Z,934.3
2019-01-18T06:21:30.674Z,934.3
2019-01-18T06:22:30.572Z,934.3
2019-01-18T06:23:30.483Z,934.4
2019-01-18T06:24:30.405Z,934.4
2019-01-18T06:25:30.317Z,934.4
2019-01-18T06:26:30.198Z,934.3
2019-01-18T06:27:30.247Z,934.4
2019-01-18T06:28:30.149Z,934.5
2019-01-18T06:29:30.099Z,934.3
2019-01-18T06:30:30.446Z,934.5
2019-01-18T06:31:30.335Z,934.5
2019-01-18T06:32:30.241Z,934.5
2019-01-18T06:33:30.896Z,934.5
2019-01-18T06:34:30.799Z,934.5
2019-01-18T06:35:30.689Z,934.6
2019-01-18T06:36:30.600Z,934.5
2019-01-18T06:37:30.482Z,934.6
2019-01-18T06:38:30.362Z,933.5
2019-01-18T06:39:30.276Z,934.6
2019-01-18T06:40:30.599Z,934.6
2019-01-18T06:41:30.479Z,934.6
2019-01-18T06:42:30.203Z,934.6
2019-01-18T06:43:29.940Z,934.6
2019-01-18T06:44:29.674Z,934.5
2019-01-18T06:45:29.399Z,934.7
2019-01-18T06:46:29.134Z,934.7
2019-01-18T06:47:28.861Z,934.6
2019-01-18T06:48:28.611Z,934.7
2019-01-18T06:49:28.354Z,934.7
2019-01-18T06:50:28.533Z,934.8
2019-01-18T06:51:28.257Z,934.8
2019-01-18T06:52:27.991Z,934.7
2019-01-18T06:53:27.713Z,934.8
2019-01-18T06:54:27.455Z,934.7
2019-01-18T06:55:27.189Z,934.7
2019-01-18T06:56:26.910Z,934.8
2019-01-18T06:57:26.645Z,934.8
2019-01-18T06:58:26.378Z,934.7
2019-01-18T06:59:26.125Z,934.9
2019-01-18T07:00:26.247Z,934.8
2019-01-18T07:01:26.031Z,934.9
2019-01-18T07:02:25.751Z,934.9
2019-01-18T07:03:25.478Z,934.9
2019-01-18T07:04:25.233Z,935
2019-01-18T07:05:25.184Z,935
2019-01-18T07:06:25.071Z,935.1
2019-01-18T07:07:24.795Z,935.1
2019-01-18T07:08:24.514Z,935
2019-01-18T07:09:24.269Z,935
2019-01-18T07:10:24.559Z,935.1
2019-01-18T07:11:24.465Z,935.1
2019-01-18T07:12:24.373Z,935
2019-01-18T07:13:24.267Z,935.2
2019-01-18T07:14:24.192Z,935.1
2019-01-18T07:15:24.350Z,935.2
2019-01-18T07:16:24.261Z,935.2
2019-01-18T07:17:24.159Z,935.1
2019-01-18T07:18:24.065Z,935.1
2019-01-18T07:19:23.977Z,935.1
2019-01-18T07:20:24.563Z,935.1
2019-01-18T07:21:24.451Z,935.3
2019-01-18T07:22:24.334Z,935.3
2019-01-18T07:23:24.267Z,935.2
2019-01-18T07:24:25.199Z,935.2
2019-01-18T07:25:25.099Z,935.2
2019-01-18T07:26:24.967Z,935.3
2019-01-18T07:27:24.865Z,935.2
2019-01-18T07:28:24.761Z,935.3
2019-01-18T07:29:24.677Z,935.3
2019-01-18T07:30:25.087Z,933.7
2019-01-18T07:31:24.994Z,935.3
2019-01-18T07:32:24.907Z,935.3
2019-01-18T07:33:24.790Z,935.3
2019-01-18T07:34:24.707Z,935.3
2019-01-18T07:35:24.822Z,935.4
2019-01-18T07:36:24.723Z,935.4
2019-01-18T07:37:24.605Z,935.2
2019-01-18T07:38:24.515Z,935.1
2019-01-18T07:39:24.409Z,935.2
2019-01-18T07:40:26.415Z,935.4
2019-01-18T07:41:26.313Z,935.4
2019-01-18T07:42:26.239Z,935.4
2019-01-18T07:43:26.153Z,935.5
2019-01-18T07:44:26.051Z,935.5
2019-01-18T07:45:25.965Z,935.5
2019-01-18T07:46:25.867Z,935.4
2019-01-18T07:47:25.809Z,935.5
2019-01-18T07:48:26.754Z,935.4
2019-01-18T07:49:26.647Z,935.5
2019-01-18T07:50:27.012Z,935.5
2019-01-18T07:51:26.926Z,935.6
2019-01-18T07:52:32.901Z,934.2
2019-01-18T07:53:32.633Z,935.5
2019-01-18T07:54:32.355Z,935.6
2019-01-18T07:55:32.128Z,935.6
2019-01-18T07:56:31.861Z,935.7
2019-01-18T07:57:31.569Z,935.6
2019-01-18T07:58:31.299Z,935.5
2019-01-18T07:59:31.021Z,935.7
2019-01-18T08:00:31.209Z,935.5
2019-01-18T08:01:30.947Z,935.7
2019-01-18T08:02:30.683Z,935.7
2019-01-18T08:03:30.406Z,935.5
2019-01-18T08:04:30.130Z,935.6
2019-01-18T08:05:29.863Z,935.7
2019-01-18T08:06:29.653Z,935.7
2019-01-18T08:07:29.383Z,935.7
2019-01-18T08:08:29.117Z,935.8
2019-01-18T08:09:28.836Z,935.7
2019-01-18T08:10:29.163Z,935.7
2019-01-18T08:11:29.061Z,935.7
2019-01-18T08:12:28.981Z,935.8
2019-01-18T08:13:28.912Z,935.7
2019-01-18T08:14:28.823Z,935.8
2019-01-18T08:15:28.720Z,935.8
2019-01-18T08:16:28.605Z,935.8
2019-01-18T08:17:28.537Z,935.8
2019-01-18T08:18:28.433Z,935.8
2019-01-18T08:19:28.329Z,935.7
2019-01-18T08:20:28.656Z,935.9
2019-01-18T08:21:34.628Z,935.9
2019-01-18T08:22:34.366Z,935.9
2019-01-18T08:23:34.089Z,935.9
2019-01-18T08:24:33.819Z,935.8
2019-01-18T08:25:33.547Z,935.9
2019-01-18T08:26:33.273Z,936
2019-01-18T08:27:32.995Z,936
2019-01-18T08:28:32.754Z,935.9
2019-01-18T08:29:32.527Z,936
2019-01-18T08:30:32.829Z,936
2019-01-18T08:31:32.712Z,936
2019-01-18T08:32:32.606Z,936
2019-01-18T08:33:32.510Z,936
2019-01-18T08:34:32.459Z,935.8
2019-01-18T08:35:32.397Z,936
2019-01-18T08:36:32.281Z,936.1
2019-01-18T08:37:32.224Z,936
2019-01-18T08:38:32.155Z,936
2019-01-18T08:39:32.036Z,936
2019-01-18T08:40:32.373Z,936
2019-01-18T08:41:32.287Z,935.9
2019-01-18T08:42:32.177Z,936
2019-01-18T08:43:32.069Z,936.1
2019-01-18T08:44:31.969Z,936.1
2019-01-18T08:45:31.871Z,936
2019-01-18T08:46:31.769Z,936
2019-01-18T08:47:31.643Z,936
2019-01-18T08:48:31.523Z,935.9
2019-01-18T08:49:31.433Z,935.9
2019-01-18T08:50:34.690Z,936.1
2019-01-18T08:51:34.591Z,936
2019-01-18T08:52:34.474Z,936
2019-01-18T08:53:34.388Z,936
2019-01-18T08:54:34.305Z,936
2019-01-18T08:55:34.182Z,936.1
2019-01-18T08:56:34.120Z,936
2019-01-18T08:57:34.002Z,936
2019-01-18T08:58:33.907Z,936
2019-01-18T08:59:33.823Z,936
2019-01-18T09:00:34.137Z,936.1
2019-01-18T09:01:36.763Z,936
2019-01-18T09:02:36.666Z,936.1
2019-01-18T09:03:36.548Z,935.4
2019-01-18T09:04:36.485Z,936.1
2019-01-18T09:05:36.397Z,936.1
2019-01-18T09:06:36.276Z,936.1
2019-01-18T09:07:36.172Z,935.9
2019-01-18T09:08:36.066Z,936
2019-01-18T09:09:35.972Z,936
2019-01-18T09:10:36.333Z,936.2
2019-01-18T09:11:36.216Z,936.2
2019-01-18T09:12:36.107Z,936.2
2019-01-18T09:13:36.051Z,936.2
2019-01-18T09:14:35.940Z,936.1
2019-01-18T09:15:35.848Z,936.2
2019-01-18T09:16:35.732Z,936.2
2019-01-18T09:17:35.622Z,936.2
2019-01-18T09:18:35.512Z,936.1
2019-01-18T09:19:35.422Z,936.2
2019-01-18T09:20:35.782Z,936.2
2019-01-18T09:21:35.662Z,936.2
2019-01-18T09:22:35.545Z,935
2019-01-18T09:23:35.438Z,936.1
2019-01-18T09:24:35.320Z,936.3
2019-01-18T09:25:35.234Z,936.2
2019-01-18T09:26:35.120Z,936.3
2019-01-18T09:27:35.010Z,936.3
2019-01-18T09:28:34.899Z,936.3
2019-01-18T09:29:34.787Z,936.3
2019-01-18T09:30:35.152Z,936.3
2019-01-18T09:31:35.063Z,936.3
2019-01-18T09:32:34.976Z,936.3
2019-01-18T09:33:34.858Z,936.3
2019-01-18T09:34:34.760Z,936.4
2019-01-18T09:35:34.653Z,936.2
2019-01-18T09:36:34.578Z,936.3
2019-01-18T09:37:34.468Z,936.4
2019-01-18T09:38:34.384Z,936.3
2019-01-18T09:39:34.272Z,936.3
2019-01-18T09:40:34.731Z,936.2
2019-01-18T09:41:34.639Z,936.3
2019-01-18T09:42:34.523Z,936.3
2019-01-18T09:43:34.421Z,936.3
2019-01-18T09:44:34.303Z,936.4
2019-01-18T09:45:34.202Z,936.3
2019-01-18T09:46:34.094Z,936.3
2019-01-18T09:47:33.987Z,936.3
2019-01-18T09:48:33.877Z,936.3
2019-01-18T09:49:33.780Z,936.3
2019-01-18T09:50:34.091Z,936.1
2019-01-18T09:51:34.016Z,936.3
2019-01-18T09:52:33.910Z,936.4
2019-01-18T09:53:33.813Z,935.6
2019-01-18T09:54:33.704Z,936.2
2019-01-18T09:55:34.946Z,936.3
2019-01-18T09:56:34.838Z,936.2
2019-01-18T09:57:34.731Z,936.4
2019-01-18T09:58:34.623Z,936.3
2019-01-18T09:59:34.514Z,936.3
2019-01-18T10:00:34.832Z,936.3
2019-01-18T10:01:34.715Z,936.3
2019-01-18T10:02:34.637Z,936.3
2019-01-18T10:03:34.539Z,936.3
2019-01-18T10:04:34.419Z,936.3
2019-01-18T10:05:34.305Z,936.3
2019-01-18T10:06:34.212Z,936.2
2019-01-18T10:07:34.096Z,936.2
2019-01-18T10:08:34.030Z,936.3
2019-01-18T10:09:33.932Z,936.3
2019-01-18T10:10:34.270Z,936.3
2019-01-18T10:11:34.161Z,936.3
2019-01-18T10:12:34.056Z,936.3
2019-01-18T10:13:33.980Z,936.3
2019-01-18T10:14:33.860Z,936.2
2019-01-18T10:15:33.744Z,936.2
2019-01-18T10:16:33.633Z,936.3
2019-01-18T10:17:33.513Z,936.3
2019-01-18T10:18:33.436Z,936.3
2019-01-18T10:19:33.342Z,936.2
2019-01-18T10:20:33.716Z,936.2
2019-01-18T10:21:33.612Z,936.2
2019-01-18T10:22:33.506Z,936.2
2019-01-18T10:23:33.412Z,936.2
2019-01-18T10:24:33.311Z,936.2
2019-01-18T10:25:33.198Z,936.1
2019-01-18T10:26:33.092Z,936
2019-01-18T10:27:32.985Z,936.2
2019-01-18T10:28:32.888Z,936.2
2019-01-18T10:29:32.858Z,936.2
2019-01-18T10:30:33.175Z,936.2
2019-01-18T10:31:33.090Z,936.2
2019-01-18T10:32:32.982Z,936.1
2019-01-18T10:33:32.911Z,936.2
2019-01-18T10:34:32.818Z,936.1
2019-01-18T10:35:32.716Z,936.2
2019-01-18T10:36:32.594Z,936.1
2019-01-18T10:37:32.512Z,936.1
2019-01-18T10:38:32.418Z,936.2
2019-01-18T10:39:32.316Z,936.2
2019-01-18T10:40:32.613Z,936.1
2019-01-18T10:41:32.528Z,936.2
2019-01-18T10:42:32.406Z,936.2
2019-01-18T10:43:32.330Z,936.1
2019-01-18T10:44:32.221Z,936.1
2019-01-18T10:45:32.109Z,934.6
2019-01-18T10:46:31.996Z,936
2019-01-18T10:47:31.884Z,936.1
2019-01-18T10:48:31.852Z,936.1
2019-01-18T10:49:31.746Z,936.1
2019-01-18T10:50:32.106Z,936
2019-01-18T10:51:31.992Z,936
2019-01-18T10:52:31.871Z,936
2019-01-18T10:53:31.786Z,936
2019-01-18T10:54:31.685Z,936
2019-01-18T10:55:31.566Z,936
2019-01-18T10:56:31.441Z,936.1
2019-01-18T10:57:31.330Z,936
2019-01-18T10:58:31.286Z,936
2019-01-18T10:59:31.179Z,935.9
2019-01-18T11:00:31.520Z,936
2019-01-18T11:01:31.393Z,936
2019-01-18T11:02:31.254Z,936
2019-01-18T11:03:31.162Z,935.9
2019-01-18T11:04:31.036Z,935.9
2019-01-18T11:05:30.928Z,936
2019-01-18T11:06:30.811Z,936
2019-01-18T11:07:30.707Z,935.8
2019-01-18T11:08:30.637Z,936
2019-01-18T11:09:30.534Z,934.5
2019-01-18T11:10:30.875Z,935.9
2019-01-18T11:11:30.806Z,936
2019-01-18T11:12:30.700Z,935.9
2019-01-18T11:13:30.572Z,935.9
2019-01-18T11:14:30.482Z,935.8
2019-01-18T11:15:30.366Z,935.8
2019-01-18T11:16:30.264Z,934.3
2019-01-18T11:17:30.151Z,935.8
2019-01-18T11:18:30.036Z,935.9
2019-01-18T11:19:29.931Z,935.8
2019-01-18T11:20:30.397Z,935.8
2019-01-18T11:21:30.281Z,935.7
2019-01-18T11:22:30.218Z,935.9
2019-01-18T11:23:30.121Z,935.8
2019-01-18T11:24:30.005Z,935.7
2019-01-18T11:25:32.990Z,934.2
2019-01-18T11:26:32.891Z,935.7
2019-01-18T11:27:32.778Z,935.6
2019-01-18T11:28:32.676Z,935.7
2019-01-18T11:29:32.559Z,935.6
2019-01-18T11:30:32.930Z,935.7
2019-01-18T11:31:32.806Z,935.6
2019-01-18T11:32:32.693Z,935.7
2019-01-18T11:33:32.580Z,935.7
2019-01-18T11:34:32.459Z,935.6
2019-01-18T11:35:32.366Z,935.6
2019-01-18T11:36:32.278Z,935.6
2019-01-18T11:37:31.998Z,935.6
2019-01-18T11:38:31.902Z,935.6
2019-01-18T11:39:31.632Z,935.6
2019-01-18T11:40:32.079Z,934.2
2019-01-18T11:41:31.981Z,935
2019-01-18T11:42:31.911Z,935.6
2019-01-18T11:43:31.838Z,935.6
2019-01-18T11:44:31.727Z,935.6
2019-01-18T11:45:31.602Z,935.5
2019-01-18T11:46:31.518Z,935.6
2019-01-18T11:47:31.398Z,935.5
2019-01-18T11:48:31.294Z,935.6
2019-01-18T11:49:31.217Z,935.5
2019-01-18T11:50:31.548Z,935.6
2019-01-18T11:51:31.469Z,935.5
2019-01-18T11:52:31.363Z,935.5
2019-01-18T11:53:31.253Z,935.6
2019-01-18T11:54:31.121Z,935.4
2019-01-18T11:55:31.013Z,935.5
2019-01-18T11:56:30.940Z,935.3
2019-01-18T11:57:30.875Z,935.5
2019-01-18T11:58:30.758Z,935.5
2019-01-18T11:59:30.646Z,935.4
2019-01-18T12:00:37.623Z,935.4
2019-01-18T12:01:37.811Z,935.5
2019-01-18T12:02:37.701Z,935.5
2019-01-18T12:03:37.568Z,935.5
2019-01-18T12:04:37.488Z,935.5
2019-01-18T12:05:37.377Z,935.5
2019-01-18T12:06:37.274Z,935.4
2019-01-18T12:07:37.185Z,935.5
2019-01-18T12:08:37.077Z,935.5
2019-01-18T12:09:36.953Z,935.3
2019-01-18T12:10:37.285Z,935.4
2019-01-18T12:11:37.196Z,935.5
2019-01-18T12:12:37.091Z,935.4
2019-01-18T12:13:36.975Z,935.2
2019-01-18T12:14:36.856Z,935.3
2019-01-18T12:15:36.601Z,934.5
2019-01-18T12:16:36.377Z,935.3
2019-01-18T12:17:36.123Z,935.4
2019-01-18T12:18:35.847Z,935.4
2019-01-18T12:19:35.573Z,935.3
2019-01-18T12:20:35.901Z,935.2
2019-01-18T12:21:38.123Z,935.3
2019-01-18T12:22:38.021Z,935.3
2019-01-18T12:23:37.890Z,935.3
2019-01-18T12:24:37.783Z,935.3
2019-01-18T12:25:37.659Z,935.3
2019-01-18T12:26:37.568Z,935.3
2019-01-18T12:27:37.469Z,935.3
2019-01-18T12:28:37.372Z,935.2
2019-01-18T12:29:37.248Z,935.2
2019-01-18T12:30:37.562Z,935.2
2019-01-18T12:31:37.472Z,935.2
2019-01-18T12:32:37.380Z,935.2
2019-01-18T12:33:37.268Z,935.2
2019-01-18T12:34:37.150Z,935.2
2019-01-18T12:35:37.034Z,935.2
2019-01-18T12:36:36.935Z,935
2019-01-18T12:37:36.829Z,935
2019-01-18T12:38:36.724Z,935.1
2019-01-18T12:39:36.673Z,935.2
2019-01-18T12:40:36.976Z,935.2
2019-01-18T12:41:36.889Z,935.2
2019-01-18T12:42:36.773Z,935
2019-01-18T12:43:36.701Z,935.1
2019-01-18T12:44:36.607Z,935.1
2019-01-18T12:45:36.534Z,935.1
2019-01-18T12:46:36.434Z,935.1
2019-01-18T12:47:36.326Z,935.1
2019-01-18T12:48:36.224Z,935.1
2019-01-18T12:49:36.108Z,934.5
2019-01-18T12:50:36.506Z,935.2
2019-01-18T12:51:36.423Z,935.1
2019-01-18T12:52:36.304Z,935.1
2019-01-18T12:53:36.247Z,934.2
2019-01-18T12:54:36.138Z,935.1
2019-01-18T12:55:36.055Z,935.1
2019-01-18T12:56:35.955Z,933.6
2019-01-18T12:57:35.853Z,935.2